sensor_id;sensor_type;location;lat;lon;timestamp;pressure;altitude;pressure_sealevel;temperature
72405;BMP280;60395;52.020;113.548;2024-02-14T00:02:45;93575.22;;;-15.31
72405;BMP280;60395;52.020;113.548;2024-02-14T00:05:52;93568.31;;;-15.49
72405;BMP280;60395;52.020;113.548;2024-02-14T00:08:55;93568.25;;;-15.44
72405;BMP280;60395;52.020;113.548;2024-02-14T00:11:59;93568.94;;;-15.43
72405;BMP280;60395;52.020;113.548;2024-02-14T00:15:06;93564.47;;;-15.31
72405;BMP280;60395;52.020;113.548;2024-02-14T00:18:10;93577.94;;;-15.16
72405;BMP280;60395;52.020;113.548;2024-02-14T00:21:13;93586.44;;;-15.00
72405;BMP280;60395;52.020;113.548;2024-02-14T00:24:17;93587.94;;;-14.91
72405;BMP280;60395;52.020;113.548;2024-02-14T00:27:21;93601.38;;;-14.89
72405;BMP280;60395;52.020;113.548;2024-02-14T00:30:25;93594.13;;;-14.79
72405;BMP280;60395;52.020;113.548;2024-02-14T00:33:32;93598.53;;;-14.66
72405;BMP280;60395;52.020;113.548;2024-02-14T00:36:35;93604.81;;;-14.47
72405;BMP280;60395;52.020;113.548;2024-02-14T00:39:39;93601.38;;;-14.30
72405;BMP280;60395;52.020;113.548;2024-02-14T00:42:42;93600.78;;;-14.10
72405;BMP280;60395;52.020;113.548;2024-02-14T00:45:45;93603.00;;;-13.93
72405;BMP280;60395;52.020;113.548;2024-02-14T00:48:50;93610.94;;;-13.76
72405;BMP280;60395;52.020;113.548;2024-02-14T00:51:54;93607.03;;;-13.64
72405;BMP280;60395;52.020;113.548;2024-02-14T00:54:58;93609.50;;;-13.51
72405;BMP280;60395;52.020;113.548;2024-02-14T00:58:01;93609.84;;;-13.47
72405;BMP280;60395;52.020;113.548;2024-02-14T01:01:05;93610.69;;;-13.52
72405;BMP280;60395;52.020;113.548;2024-02-14T01:04:08;93605.53;;;-13.59
72405;BMP280;60395;52.020;113.548;2024-02-14T01:07:12;93602.56;;;-13.71
72405;BMP280;60395;52.020;113.548;2024-02-14T01:10:16;93611.97;;;-13.71
72405;BMP280;60395;52.020;113.548;2024-02-14T01:13:21;93613.13;;;-13.59
72405;BMP280;60395;52.020;113.548;2024-02-14T01:16:25;93620.97;;;-13.50
72405;BMP280;60395;52.020;113.548;2024-02-14T01:19:29;93622.91;;;-13.43
72405;BMP280;60395;52.020;113.548;2024-02-14T01:22:32;93623.03;;;-13.27
72405;BMP280;60395;52.020;113.548;2024-02-14T01:25:36;93628.94;;;-13.25
72405;BMP280;60395;52.020;113.548;2024-02-14T01:28:39;93629.44;;;-13.26
72405;BMP280;60395;52.020;113.548;2024-02-14T01:31:43;93628.56;;;-13.29
72405;BMP280;60395;52.020;113.548;2024-02-14T01:34:46;93624.19;;;-13.28
72405;BMP280;60395;52.020;113.548;2024-02-14T01:37:49;93628.75;;;-13.27
72405;BMP280;60395;52.020;113.548;2024-02-14T01:40:55;93634.56;;;-13.19
72405;BMP280;60395;52.020;113.548;2024-02-14T01:43:58;93622.06;;;-13.03
72405;BMP280;60395;52.020;113.548;2024-02-14T01:47:05;93637.53;;;-12.86
72405;BMP280;60395;52.020;113.548;2024-02-14T01:50:09;93635.28;;;-12.69
72405;BMP280;60395;52.020;113.548;2024-02-14T01:53:14;93632.19;;;-12.54
72405;BMP280;60395;52.020;113.548;2024-02-14T01:56:18;93636.31;;;-12.44
72405;BMP280;60395;52.020;113.548;2024-02-14T01:59:22;93637.84;;;-12.41
72405;BMP280;60395;52.020;113.548;2024-02-14T02:02:26;93638.38;;;-12.34
72405;BMP280;60395;52.020;113.548;2024-02-14T02:05:30;93639.97;;;-12.24
72405;BMP280;60395;52.020;113.548;2024-02-14T02:08:34;93625.00;;;-12.14
72405;BMP280;60395;52.020;113.548;2024-02-14T02:11:52;93626.72;;;-12.09
72405;BMP280;60395;52.020;113.548;2024-02-14T02:15:08;93625.41;;;-12.02
72405;BMP280;60395;52.020;113.548;2024-02-14T02:18:17;93631.69;;;-11.96
72405;BMP280;60395;52.020;113.548;2024-02-14T02:21:21;93623.72;;;-11.92
72405;BMP280;60395;52.020;113.548;2024-02-14T02:24:26;93615.50;;;-11.85
72405;BMP280;60395;52.020;113.548;2024-02-14T02:27:29;93616.69;;;-11.79
72405;BMP280;60395;52.020;113.548;2024-02-14T02:30:33;93618.06;;;-11.70
72405;BMP280;60395;52.020;113.548;2024-02-14T02:33:38;93617.66;;;-11.38
72405;BMP280;60395;52.020;113.548;2024-02-14T02:36:41;93612.94;;;-11.11
72405;BMP280;60395;52.020;113.548;2024-02-14T02:39:46;93612.59;;;-10.92
72405;BMP280;60395;52.020;113.548;2024-02-14T02:42:49;93611.59;;;-10.74
72405;BMP280;60395;52.020;113.548;2024-02-14T02:45:56;93619.00;;;-10.61
72405;BMP280;60395;52.020;113.548;2024-02-14T02:49:00;93608.84;;;-10.69
72405;BMP280;60395;52.020;113.548;2024-02-14T02:52:05;93614.28;;;-10.87
72405;BMP280;60395;52.020;113.548;2024-02-14T02:55:08;93602.97;;;-11.01
72405;BMP280;60395;52.020;113.548;2024-02-14T02:58:13;93608.69;;;-11.09
72405;BMP280;60395;52.020;113.548;2024-02-14T03:01:17;93605.34;;;-11.11
72405;BMP280;60395;52.020;113.548;2024-02-14T03:04:21;93602.28;;;-11.17
72405;BMP280;60395;52.020;113.548;2024-02-14T03:07:35;93604.31;;;-11.16
72405;BMP280;60395;52.020;113.548;2024-02-14T03:10:38;93606.84;;;-11.08
72405;BMP280;60395;52.020;113.548;2024-02-14T03:13:41;93609.91;;;-11.02
72405;BMP280;60395;52.020;113.548;2024-02-14T03:16:47;93601.63;;;-10.95
72405;BMP280;60395;52.020;113.548;2024-02-14T03:19:50;93595.50;;;-10.92
72405;BMP280;60395;52.020;113.548;2024-02-14T03:22:54;93603.31;;;-10.82
72405;BMP280;60395;52.020;113.548;2024-02-14T03:25:58;93598.06;;;-10.77
72405;BMP280;60395;52.020;113.548;2024-02-14T03:29:02;93595.31;;;-10.63
72405;BMP280;60395;52.020;113.548;2024-02-14T03:32:09;93593.09;;;-10.52
72405;BMP280;60395;52.020;113.548;2024-02-14T03:35:13;93594.25;;;-10.38
72405;BMP280;60395;52.020;113.548;2024-02-14T03:38:29;93596.22;;;-10.21
72405;BMP280;60395;52.020;113.548;2024-02-14T03:41:34;93595.34;;;-10.08
72405;BMP280;60395;52.020;113.548;2024-02-14T03:44:37;93592.41;;;-9.97
72405;BMP280;60395;52.020;113.548;2024-02-14T03:47:41;93601.31;;;-9.81
72405;BMP280;60395;52.020;113.548;2024-02-14T03:50:45;93608.66;;;-9.60
72405;BMP280;60395;52.020;113.548;2024-02-14T03:53:48;93596.88;;;-9.48
72405;BMP280;60395;52.020;113.548;2024-02-14T03:56:51;93602.53;;;-9.24
72405;BMP280;60395;52.020;113.548;2024-02-14T03:59:56;93603.00;;;-9.18
72405;BMP280;60395;52.020;113.548;2024-02-14T04:02:59;93597.91;;;-9.18
72405;BMP280;60395;52.020;113.548;2024-02-14T04:06:03;93592.91;;;-9.09
72405;BMP280;60395;52.020;113.548;2024-02-14T04:09:06;93589.13;;;-9.00
72405;BMP280;60395;52.020;113.548;2024-02-14T04:12:10;93591.28;;;-8.97
72405;BMP280;60395;52.020;113.548;2024-02-14T04:15:15;93595.38;;;-9.01
72405;BMP280;60395;52.020;113.548;2024-02-14T04:18:19;93588.00;;;-8.89
72405;BMP280;60395;52.020;113.548;2024-02-14T04:21:22;93583.81;;;-8.77
72405;BMP280;60395;52.020;113.548;2024-02-14T04:24:26;93586.44;;;-8.68
72405;BMP280;60395;52.020;113.548;2024-02-14T04:27:29;93584.19;;;-8.64
72405;BMP280;60395;52.020;113.548;2024-02-14T04:30:33;93578.81;;;-8.68
72405;BMP280;60395;52.020;113.548;2024-02-14T04:33:41;93590.25;;;-8.59
72405;BMP280;60395;52.020;113.548;2024-02-14T04:36:44;93585.78;;;-8.68
72405;BMP280;60395;52.020;113.548;2024-02-14T04:39:48;93580.22;;;-8.74
72405;BMP280;60395;52.020;113.548;2024-02-14T04:42:51;93567.41;;;-8.84
72405;BMP280;60395;52.020;113.548;2024-02-14T04:45:55;93570.28;;;-8.80
72405;BMP280;60395;52.020;113.548;2024-02-14T04:48:58;93566.47;;;-8.88
72405;BMP280;60395;52.020;113.548;2024-02-14T04:52:02;93566.06;;;-8.85
72405;BMP280;60395;52.020;113.548;2024-02-14T04:55:06;93573.63;;;-8.60
72405;BMP280;60395;52.020;113.548;2024-02-14T04:58:10;93578.44;;;-8.47
72405;BMP280;60395;52.020;113.548;2024-02-14T05:01:13;93562.91;;;-8.41
72405;BMP280;60395;52.020;113.548;2024-02-14T05:04:18;93556.91;;;-8.36
72405;BMP280;60395;52.020;113.548;2024-02-14T05:07:21;93566.84;;;-8.31
72405;BMP280;60395;52.020;113.548;2024-02-14T05:10:25;93564.75;;;-8.25
72405;BMP280;60395;52.020;113.548;2024-02-14T05:13:28;93565.03;;;-8.21
72405;BMP280;60395;52.020;113.548;2024-02-14T05:16:32;93558.25;;;-8.18
72405;BMP280;60395;52.020;113.548;2024-02-14T05:19:35;93553.50;;;-8.22
72405;BMP280;60395;52.020;113.548;2024-02-14T05:22:39;93550.03;;;-8.16
72405;BMP280;60395;52.020;113.548;2024-02-14T05:25:42;93551.41;;;-8.15
72405;BMP280;60395;52.020;113.548;2024-02-14T05:28:46;93542.56;;;-8.14
72405;BMP280;60395;52.020;113.548;2024-02-14T05:31:49;93542.47;;;-8.07
72405;BMP280;60395;52.020;113.548;2024-02-14T05:34:55;93542.22;;;-8.01
72405;BMP280;60395;52.020;113.548;2024-02-14T05:37:58;93540.78;;;-7.95
72405;BMP280;60395;52.020;113.548;2024-02-14T05:41:02;93541.31;;;-7.96
72405;BMP280;60395;52.020;113.548;2024-02-14T05:44:05;93535.53;;;-7.97
72405;BMP280;60395;52.020;113.548;2024-02-14T05:47:09;93541.84;;;-7.88
72405;BMP280;60395;52.020;113.548;2024-02-14T05:50:14;93529.47;;;-7.74
72405;BMP280;60395;52.020;113.548;2024-02-14T05:53:17;93539.00;;;-7.65
72405;BMP280;60395;52.020;113.548;2024-02-14T05:56:21;93526.16;;;-7.58
72405;BMP280;60395;52.020;113.548;2024-02-14T05:59:24;93519.94;;;-7.55
72405;BMP280;60395;52.020;113.548;2024-02-14T06:02:28;93526.59;;;-7.42
72405;BMP280;60395;52.020;113.548;2024-02-14T06:05:31;93522.44;;;-7.37
72405;BMP280;60395;52.020;113.548;2024-02-14T06:08:34;93506.59;;;-7.26
72405;BMP280;60395;52.020;113.548;2024-02-14T06:11:38;93509.03;;;-7.19
72405;BMP280;60395;52.020;113.548;2024-02-14T06:14:42;93514.66;;;-7.11
72405;BMP280;60395;52.020;113.548;2024-02-14T06:17:45;93513.34;;;-7.02
72405;BMP280;60395;52.020;113.548;2024-02-14T06:20:49;93516.16;;;-7.07
72405;BMP280;60395;52.020;113.548;2024-02-14T06:23:53;93507.94;;;-7.16
72405;BMP280;60395;52.020;113.548;2024-02-14T06:26:56;93501.06;;;-7.23
72405;BMP280;60395;52.020;113.548;2024-02-14T06:30:00;93508.19;;;-7.31
72405;BMP280;60395;52.020;113.548;2024-02-14T06:33:04;93508.88;;;-7.40
72405;BMP280;60395;52.020;113.548;2024-02-14T06:36:07;93510.56;;;-7.62
72405;BMP280;60395;52.020;113.548;2024-02-14T06:39:11;93503.53;;;-7.80
72405;BMP280;60395;52.020;113.548;2024-02-14T06:42:15;93498.22;;;-8.02
72405;BMP280;60395;52.020;113.548;2024-02-14T06:45:19;93501.38;;;-8.11
72405;BMP280;60395;52.020;113.548;2024-02-14T06:48:22;93496.69;;;-8.14
72405;BMP280;60395;52.020;113.548;2024-02-14T06:51:27;93489.00;;;-8.24
72405;BMP280;60395;52.020;113.548;2024-02-14T06:54:31;93498.09;;;-8.21
72405;BMP280;60395;52.020;113.548;2024-02-14T06:57:34;93496.53;;;-8.16
72405;BMP280;60395;52.020;113.548;2024-02-14T07:00:38;93490.38;;;-8.13
72405;BMP280;60395;52.020;113.548;2024-02-14T07:03:41;93501.16;;;-8.05
72405;BMP280;60395;52.020;113.548;2024-02-14T07:06:44;93500.63;;;-8.04
72405;BMP280;60395;52.020;113.548;2024-02-14T07:09:48;93494.84;;;-8.04
72405;BMP280;60395;52.020;113.548;2024-02-14T07:12:51;93494.56;;;-8.08
72405;BMP280;60395;52.020;113.548;2024-02-14T07:15:55;93481.53;;;-8.12
72405;BMP280;60395;52.020;113.548;2024-02-14T07:18:59;93490.78;;;-7.80
72405;BMP280;60395;52.020;113.548;2024-02-14T07:22:03;93482.53;;;-7.33
72405;BMP280;60395;52.020;113.548;2024-02-14T07:25:06;93488.59;;;-7.38
72405;BMP280;60395;52.020;113.548;2024-02-14T07:28:11;93486.28;;;-7.63
72405;BMP280;60395;52.020;113.548;2024-02-14T07:31:14;93483.88;;;-7.88
72405;BMP280;60395;52.020;113.548;2024-02-14T07:34:17;93480.22;;;-8.04
72405;BMP280;60395;52.020;113.548;2024-02-14T07:37:21;93477.13;;;-8.12
72405;BMP280;60395;52.020;113.548;2024-02-14T07:40:25;93469.25;;;-8.06
72405;BMP280;60395;52.020;113.548;2024-02-14T07:43:30;93485.59;;;-8.00
72405;BMP280;60395;52.020;113.548;2024-02-14T07:46:33;93474.28;;;-8.16
72405;BMP280;60395;52.020;113.548;2024-02-14T07:49:37;93488.13;;;-8.36
72405;BMP280;60395;52.020;113.548;2024-02-14T07:52:43;93484.88;;;-8.46
72405;BMP280;60395;52.020;113.548;2024-02-14T07:55:47;93481.97;;;-8.60
72405;BMP280;60395;52.020;113.548;2024-02-14T07:58:52;93483.69;;;-8.63
72405;BMP280;60395;52.020;113.548;2024-02-14T08:01:56;93480.63;;;-8.61
72405;BMP280;60395;52.020;113.548;2024-02-14T08:05:03;93482.94;;;-8.56
72405;BMP280;60395;52.020;113.548;2024-02-14T08:08:12;93479.78;;;-8.64
72405;BMP280;60395;52.020;113.548;2024-02-14T08:11:15;93479.50;;;-8.68
72405;BMP280;60395;52.020;113.548;2024-02-14T08:14:19;93477.50;;;-8.69
72405;BMP280;60395;52.020;113.548;2024-02-14T08:17:22;93476.75;;;-8.79
72405;BMP280;60395;52.020;113.548;2024-02-14T08:20:25;93480.88;;;-8.84
72405;BMP280;60395;52.020;113.548;2024-02-14T08:23:29;93484.63;;;-8.85
72405;BMP280;60395;52.020;113.548;2024-02-14T08:26:33;93482.22;;;-8.83
72405;BMP280;60395;52.020;113.548;2024-02-14T08:29:36;93485.41;;;-8.82
72405;BMP280;60395;52.020;113.548;2024-02-14T08:32:40;93487.69;;;-8.86
72405;BMP280;60395;52.020;113.548;2024-02-14T08:35:43;93485.00;;;-8.88
72405;BMP280;60395;52.020;113.548;2024-02-14T08:38:47;93494.06;;;-8.95
72405;BMP280;60395;52.020;113.548;2024-02-14T08:41:51;93491.72;;;-9.01
72405;BMP280;60395;52.020;113.548;2024-02-14T08:44:55;93493.84;;;-9.07
72405;BMP280;60395;52.020;113.548;2024-02-14T08:47:58;93488.81;;;-9.14
72405;BMP280;60395;52.020;113.548;2024-02-14T08:51:02;93495.44;;;-9.19
72405;BMP280;60395;52.020;113.548;2024-02-14T08:54:07;93496.19;;;-9.26
72405;BMP280;60395;52.020;113.548;2024-02-14T08:57:11;93485.28;;;-9.36
72405;BMP280;60395;52.020;113.548;2024-02-14T09:00:15;93478.06;;;-9.47
72405;BMP280;60395;52.020;113.548;2024-02-14T09:03:22;93478.97;;;-9.52
72405;BMP280;60395;52.020;113.548;2024-02-14T09:06:26;93479.00;;;-9.60
72405;BMP280;60395;52.020;113.548;2024-02-14T09:09:29;93488.56;;;-9.68
72405;BMP280;60395;52.020;113.548;2024-02-14T09:12:33;93480.47;;;-9.74
72405;BMP280;60395;52.020;113.548;2024-02-14T09:15:37;93478.34;;;-9.85
72405;BMP280;60395;52.020;113.548;2024-02-14T09:18:40;93472.19;;;-10.00
72405;BMP280;60395;52.020;113.548;2024-02-14T09:21:44;93471.91;;;-10.11
72405;BMP280;60395;52.020;113.548;2024-02-14T09:24:48;93486.41;;;-10.04
72405;BMP280;60395;52.020;113.548;2024-02-14T09:27:51;93482.91;;;-9.84
72405;BMP280;60395;52.020;113.548;2024-02-14T09:30:55;93485.06;;;-9.73
72405;BMP280;60395;52.020;113.548;2024-02-14T09:33:59;93480.94;;;-9.68
72405;BMP280;60395;52.020;113.548;2024-02-14T09:37:04;93477.44;;;-9.73
72405;BMP280;60395;52.020;113.548;2024-02-14T09:40:10;93486.06;;;-10.01
72405;BMP280;60395;52.020;113.548;2024-02-14T09:43:34;93482.66;;;-10.28
72405;BMP280;60395;52.020;113.548;2024-02-14T09:46:39;93494.78;;;-10.51
72405;BMP280;60395;52.020;113.548;2024-02-14T09:49:43;93489.97;;;-10.72
72405;BMP280;60395;52.020;113.548;2024-02-14T09:52:48;93491.88;;;-10.88
72405;BMP280;60395;52.020;113.548;2024-02-14T09:55:51;93489.00;;;-10.99
72405;BMP280;60395;52.020;113.548;2024-02-14T09:58:55;93491.38;;;-11.09
72405;BMP280;60395;52.020;113.548;2024-02-14T10:02:00;93492.06;;;-11.16
72405;BMP280;60395;52.020;113.548;2024-02-14T10:05:03;93495.28;;;-11.23
72405;BMP280;60395;52.020;113.548;2024-02-14T10:08:07;93498.50;;;-11.30
72405;BMP280;60395;52.020;113.548;2024-02-14T10:11:11;93498.69;;;-11.36
72405;BMP280;60395;52.020;113.548;2024-02-14T10:14:17;93490.22;;;-11.46
72405;BMP280;60395;52.020;113.548;2024-02-14T10:17:21;93490.41;;;-11.52
72405;BMP280;60395;52.020;113.548;2024-02-14T10:20:24;93494.28;;;-11.58
72405;BMP280;60395;52.020;113.548;2024-02-14T10:23:29;93493.59;;;-11.59
72405;BMP280;60395;52.020;113.548;2024-02-14T10:26:33;93488.69;;;-11.64
72405;BMP280;60395;52.020;113.548;2024-02-14T10:29:36;93505.63;;;-11.67
72405;BMP280;60395;52.020;113.548;2024-02-14T10:32:40;93506.09;;;-11.68
72405;BMP280;60395;52.020;113.548;2024-02-14T10:35:44;93507.81;;;-11.71
72405;BMP280;60395;52.020;113.548;2024-02-14T10:38:47;93500.88;;;-11.70
72405;BMP280;60395;52.020;113.548;2024-02-14T10:41:53;93501.03;;;-11.76
72405;BMP280;60395;52.020;113.548;2024-02-14T10:44:57;93506.28;;;-11.82
72405;BMP280;60395;52.020;113.548;2024-02-14T10:48:00;93502.19;;;-11.85
72405;BMP280;60395;52.020;113.548;2024-02-14T10:51:05;93502.53;;;-11.88
72405;BMP280;60395;52.020;113.548;2024-02-14T10:54:11;93498.47;;;-11.91
72405;BMP280;60395;52.020;113.548;2024-02-14T10:57:16;93499.50;;;-11.94
72405;BMP280;60395;52.020;113.548;2024-02-14T11:00:20;93506.41;;;-11.95
72405;BMP280;60395;52.020;113.548;2024-02-14T11:03:25;93496.06;;;-11.97
72405;BMP280;60395;52.020;113.548;2024-02-14T11:06:29;93493.53;;;-12.04
72405;BMP280;60395;52.020;113.548;2024-02-14T11:09:33;93492.03;;;-12.15
72405;BMP280;60395;52.020;113.548;2024-02-14T11:12:42;93505.19;;;-12.17
72405;BMP280;60395;52.020;113.548;2024-02-14T11:15:45;93514.41;;;-12.19
72405;BMP280;60395;52.020;113.548;2024-02-14T11:18:52;93504.81;;;-12.21
72405;BMP280;60395;52.020;113.548;2024-02-14T11:21:57;93507.84;;;-12.22
72405;BMP280;60395;52.020;113.548;2024-02-14T11:25:06;93514.56;;;-12.25
72405;BMP280;60395;52.020;113.548;2024-02-14T11:28:24;93507.31;;;-12.28
72405;BMP280;60395;52.020;113.548;2024-02-14T11:31:35;93503.44;;;-12.29
72405;BMP280;60395;52.020;113.548;2024-02-14T11:34:40;93500.56;;;-12.33
72405;BMP280;60395;52.020;113.548;2024-02-14T11:37:51;93506.25;;;-12.41
72405;BMP280;60395;52.020;113.548;2024-02-14T11:40:56;93497.97;;;-12.49
72405;BMP280;60395;52.020;113.548;2024-02-14T11:44:06;93498.78;;;-12.54
72405;BMP280;60395;52.020;113.548;2024-02-14T11:47:10;93497.75;;;-12.58
72405;BMP280;60395;52.020;113.548;2024-02-14T11:50:14;93491.97;;;-12.66
72405;BMP280;60395;52.020;113.548;2024-02-14T11:53:18;93489.25;;;-12.68
72405;BMP280;60395;52.020;113.548;2024-02-14T11:56:22;93485.72;;;-12.73
72405;BMP280;60395;52.020;113.548;2024-02-14T11:59:29;93487.41;;;-12.76
72405;BMP280;60395;52.020;113.548;2024-02-14T12:02:32;93486.53;;;-12.78
72405;BMP280;60395;52.020;113.548;2024-02-14T12:05:37;93490.25;;;-12.79
72405;BMP280;60395;52.020;113.548;2024-02-14T12:08:41;93486.50;;;-12.86
72405;BMP280;60395;52.020;113.548;2024-02-14T12:11:46;93492.38;;;-12.91
72405;BMP280;60395;52.020;113.548;2024-02-14T12:14:53;93497.25;;;-12.93
72405;BMP280;60395;52.020;113.548;2024-02-14T12:17:56;93494.75;;;-12.93
72405;BMP280;60395;52.020;113.548;2024-02-14T12:21:04;93501.66;;;-12.86
72405;BMP280;60395;52.020;113.548;2024-02-14T12:24:13;93491.72;;;-12.84
72405;BMP280;60395;52.020;113.548;2024-02-14T12:27:20;93490.06;;;-12.81
72405;BMP280;60395;52.020;113.548;2024-02-14T12:30:45;93492.78;;;-12.79
72405;BMP280;60395;52.020;113.548;2024-02-14T12:33:50;93489.75;;;-12.78
72405;BMP280;60395;52.020;113.548;2024-02-14T12:36:58;93495.47;;;-12.77
72405;BMP280;60395;52.020;113.548;2024-02-14T12:40:02;93489.25;;;-12.76
72405;BMP280;60395;52.020;113.548;2024-02-14T12:43:06;93489.06;;;-12.78
72405;BMP280;60395;52.020;113.548;2024-02-14T12:46:10;93491.38;;;-12.80
72405;BMP280;60395;52.020;113.548;2024-02-14T12:49:18;93491.25;;;-12.82
72405;BMP280;60395;52.020;113.548;2024-02-14T12:52:22;93485.50;;;-12.83
72405;BMP280;60395;52.020;113.548;2024-02-14T12:55:26;93483.28;;;-12.86
72405;BMP280;60395;52.020;113.548;2024-02-14T12:58:32;93479.91;;;-12.89
72405;BMP280;60395;52.020;113.548;2024-02-14T13:01:35;93477.88;;;-12.90
72405;BMP280;60395;52.020;113.548;2024-02-14T13:04:39;93485.09;;;-12.94
72405;BMP280;60395;52.020;113.548;2024-02-14T13:07:44;93497.56;;;-12.96
72405;BMP280;60395;52.020;113.548;2024-02-14T13:10:50;93492.81;;;-13.00
72405;BMP280;60395;52.020;113.548;2024-02-14T13:13:54;93490.78;;;-13.01
72405;BMP280;60395;52.020;113.548;2024-02-14T13:16:57;93487.69;;;-13.07
72405;BMP280;60395;52.020;113.548;2024-02-14T13:20:01;93490.19;;;-13.15
72405;BMP280;60395;52.020;113.548;2024-02-14T13:23:05;93477.81;;;-13.26
72405;BMP280;60395;52.020;113.548;2024-02-14T13:26:12;93475.91;;;-13.33
72405;BMP280;60395;52.020;113.548;2024-02-14T13:29:15;93478.03;;;-13.45
72405;BMP280;60395;52.020;113.548;2024-02-14T13:32:20;93473.84;;;-13.63
72405;BMP280;60395;52.020;113.548;2024-02-14T13:35:24;93475.06;;;-13.78
72405;BMP280;60395;52.020;113.548;2024-02-14T13:38:27;93474.19;;;-13.80
72405;BMP280;60395;52.020;113.548;2024-02-14T13:41:31;93471.28;;;-13.84
72405;BMP280;60395;52.020;113.548;2024-02-14T13:44:35;93459.91;;;-13.98
72405;BMP280;60395;52.020;113.548;2024-02-14T13:47:39;93465.66;;;-14.11
72405;BMP280;60395;52.020;113.548;2024-02-14T13:50:43;93462.00;;;-14.23
72405;BMP280;60395;52.020;113.548;2024-02-14T13:53:46;93457.75;;;-14.28
72405;BMP280;60395;52.020;113.548;2024-02-14T13:56:51;93455.22;;;-14.28
72405;BMP280;60395;52.020;113.548;2024-02-14T13:59:55;93461.91;;;-14.18
72405;BMP280;60395;52.020;113.548;2024-02-14T14:02:59;93448.50;;;-14.13
72405;BMP280;60395;52.020;113.548;2024-02-14T14:06:03;93451.66;;;-14.20
72405;BMP280;60395;52.020;113.548;2024-02-14T14:09:11;93446.31;;;-14.29
72405;BMP280;60395;52.020;113.548;2024-02-14T14:12:15;93452.75;;;-14.41
72405;BMP280;60395;52.020;113.548;2024-02-14T14:15:19;93440.31;;;-14.39
72405;BMP280;60395;52.020;113.548;2024-02-14T14:18:23;93444.00;;;-14.40
72405;BMP280;60395;52.020;113.548;2024-02-14T14:21:29;93452.78;;;-14.55
72405;BMP280;60395;52.020;113.548;2024-02-14T14:24:33;93444.25;;;-14.65
72405;BMP280;60395;52.020;113.548;2024-02-14T14:27:37;93438.16;;;-14.69
72405;BMP280;60395;52.020;113.548;2024-02-14T14:30:41;93435.34;;;-14.79
72405;BMP280;60395;52.020;113.548;2024-02-14T14:33:44;93434.84;;;-14.91
72405;BMP280;60395;52.020;113.548;2024-02-14T14:36:48;93424.69;;;-14.98
72405;BMP280;60395;52.020;113.548;2024-02-14T14:39:52;93422.34;;;-14.96
72405;BMP280;60395;52.020;113.548;2024-02-14T14:42:55;93412.84;;;-15.03
72405;BMP280;60395;52.020;113.548;2024-02-14T14:45:58;93403.84;;;-14.99
72405;BMP280;60395;52.020;113.548;2024-02-14T14:49:02;93401.81;;;-14.87
72405;BMP280;60395;52.020;113.548;2024-02-14T14:52:06;93403.63;;;-14.74
72405;BMP280;60395;52.020;113.548;2024-02-14T14:55:09;93403.34;;;-14.71
72405;BMP280;60395;52.020;113.548;2024-02-14T14:58:13;93403.72;;;-14.67
72405;BMP280;60395;52.020;113.548;2024-02-14T15:01:17;93394.88;;;-14.60
72405;BMP280;60395;52.020;113.548;2024-02-14T15:04:20;93397.31;;;-14.55
72405;BMP280;60395;52.020;113.548;2024-02-14T15:07:24;93397.50;;;-14.53
72405;BMP280;60395;52.020;113.548;2024-02-14T15:10:28;93391.38;;;-14.57
72405;BMP280;60395;52.020;113.548;2024-02-14T15:13:31;93386.66;;;-14.61
72405;BMP280;60395;52.020;113.548;2024-02-14T15:16:36;93389.84;;;-14.60
72405;BMP280;60395;52.020;113.548;2024-02-14T15:19:40;93383.91;;;-14.63
72405;BMP280;60395;52.020;113.548;2024-02-14T15:22:44;93386.38;;;-14.84
72405;BMP280;60395;52.020;113.548;2024-02-14T15:25:47;93380.34;;;-15.15
72405;BMP280;60395;52.020;113.548;2024-02-14T15:28:51;93366.84;;;-15.44
72405;BMP280;60395;52.020;113.548;2024-02-14T15:32:12;93359.00;;;-15.53
72405;BMP280;60395;52.020;113.548;2024-02-14T15:35:34;93358.41;;;-15.46
72405;BMP280;60395;52.020;113.548;2024-02-14T15:38:38;93358.81;;;-15.42
72405;BMP280;60395;52.020;113.548;2024-02-14T15:41:41;93361.41;;;-15.61
72405;BMP280;60395;52.020;113.548;2024-02-14T15:44:45;93360.13;;;-15.81
72405;BMP280;60395;52.020;113.548;2024-02-14T15:47:48;93349.81;;;-15.96
72405;BMP280;60395;52.020;113.548;2024-02-14T15:50:52;93337.44;;;-15.94
72405;BMP280;60395;52.020;113.548;2024-02-14T15:53:56;93339.00;;;-15.91
72405;BMP280;60395;52.020;113.548;2024-02-14T15:56:59;93334.91;;;-15.94
72405;BMP280;60395;52.020;113.548;2024-02-14T16:00:03;93324.75;;;-16.01
72405;BMP280;60395;52.020;113.548;2024-02-14T16:03:13;93329.97;;;-15.99
72405;BMP280;60395;52.020;113.548;2024-02-14T16:06:17;93323.31;;;-15.97
72405;BMP280;60395;52.020;113.548;2024-02-14T16:09:21;93318.75;;;-15.98
72405;BMP280;60395;52.020;113.548;2024-02-14T16:12:25;93312.75;;;-15.95
72405;BMP280;60395;52.020;113.548;2024-02-14T16:15:29;93312.75;;;-15.95
72405;BMP280;60395;52.020;113.548;2024-02-14T16:18:33;93306.41;;;-15.96
72405;BMP280;60395;52.020;113.548;2024-02-14T16:21:36;93295.91;;;-16.00
72405;BMP280;60395;52.020;113.548;2024-02-14T16:24:40;93300.47;;;-15.99
72405;BMP280;60395;52.020;113.548;2024-02-14T16:27:45;93289.53;;;-16.01
72405;BMP280;60395;52.020;113.548;2024-02-14T16:30:49;93287.88;;;-16.12
72405;BMP280;60395;52.020;113.548;2024-02-14T16:33:53;93288.06;;;-16.10
72405;BMP280;60395;52.020;113.548;2024-02-14T16:36:56;93279.84;;;-16.11
72405;BMP280;60395;52.020;113.548;2024-02-14T16:40:00;93272.31;;;-16.11
72405;BMP280;60395;52.020;113.548;2024-02-14T16:43:04;93272.00;;;-16.07
72405;BMP280;60395;52.020;113.548;2024-02-14T16:46:07;93263.31;;;-16.19
72405;BMP280;60395;52.020;113.548;2024-02-14T16:49:11;93278.25;;;-16.27
72405;BMP280;60395;52.020;113.548;2024-02-14T16:52:14;93271.00;;;-16.30
72405;BMP280;60395;52.020;113.548;2024-02-14T16:55:18;93260.28;;;-16.31
72405;BMP280;60395;52.020;113.548;2024-02-14T16:58:21;93257.31;;;-16.29
72405;BMP280;60395;52.020;113.548;2024-02-14T17:01:25;93252.91;;;-16.29
72405;BMP280;60395;52.020;113.548;2024-02-14T17:04:29;93247.50;;;-16.33